Terminal Aerodrome Forecast
Issued by NWS

Home | Current Version | Previous Version | Text Only | Print | Product List | Glossary On
Versions: 1 2 3 4 5 6 7 8
000
FTUS46 KEKA 272330
TAFUKI
TAF
KUKI 272330Z 2800/2824 30005KT P6SM BKN200
     FM280300 00000KT P6SM FEW030 BKN050 OVC100
     FM282000 33003KT P6SM BKN200=

USA.gov is the U.S. government's official web portal to all federal, state and local government web resources and services.